Time;durP1;ratioP1;P1;durP2;ratioP2;P2;SDS_P1;SDS_P2;PMS_P1;PMS_P2;Temp;Humidity;BMP_temperature;BMP_pressure;BME280_temperature;BME280_humidity;BME280_pressure;Samples;Min_cycle;Max_cycle;Signal;HPM_P1;HPM_P2
2023/05/29 00:02:06;;;;;;;;;;;;;;;;;;;;;
2023/05/29 00:05:14;;;;;;;14.20;9.50;;;;;;;12.06;55.82;100713.19;109461;1272;23695;-82
2023/05/29 00:08:26;;;;;;;;;;;;;;;;;;;;;
2023/05/29 00:11:46;;;;;;;14.00;8.70;;;;;;;11.97;56.24;100712.98;109573;1271;23031;-78
2023/05/29 00:15:26;;;;;;;20.20;12.10;;;;;;;11.90;56.55;100713.42;109551;1271;21976;-79
2023/05/29 00:19:19;;;;;;;23.60;12.90;;;;;;;11.84;56.88;100714.51;109265;1275;22450;-82
2023/05/29 00:22:25;;;;;;;26.10;12.80;;;;;;;11.79;57.03;100713.30;108295;1286;21996;-80
2023/05/29 00:25:40;;;;;;;25.90;12.80;;;;;;;11.74;57.11;100713.11;108211;1286;22022;-80
2023/05/29 00:28:28;;;;;;;22.70;14.00;;;;;;;11.70;57.24;100712.91;108279;1282;21985;-79
2023/05/29 00:31:53;;;;;;;24.60;12.90;;;;;;;11.66;57.41;100711.30;108595;1280;23719;-80
2023/05/29 00:35:17;;;;;;;21.40;14.00;;;;;;;11.61;57.52;100712.04;108771;1280;23011;-78
2023/05/29 00:38:28;;;;;;;25.90;15.40;;;;;;;11.55;57.58;100708.58;108686;1270;21982;-81
2023/05/29 00:41:33;;;;;;;25.70;15.90;;;;;;;11.52;57.70;100708.52;109483;1270;22082;-78
2023/05/29 00:44:51;;;;;;;;;;;;;;;;;;;;;
2023/05/29 00:48:45;;;;;;;;;;;;;;;;;;;;;
2023/05/29 00:52:28;;;;;;;30.60;17.00;;;;;;;11.29;58.23;100705.85;109151;1274;23801;-81
2023/05/29 00:55:39;;;;;;;28.80;16.10;;;;;;;11.22;58.22;100706.43;109105;1274;21988;-79
2023/05/29 00:58:43;;;;;;;29.10;16.20;;;;;;;11.18;58.30;100705.70;109396;1267;23620;-79
2023/05/29 01:01:32;;;;;;;30.20;16.30;;;;;;;11.14;58.33;100704.80;110156;1267;21981;-79
2023/05/29 01:04:33;;;;;;;27.30;14.10;;;;;;;11.10;58.41;100704.42;110163;1260;24324;-79
2023/05/29 01:08:09;;;;;;;;;;;;;;;;;;;;;
2023/05/29 01:11:42;;;;;;;24.30;15.30;;;;;;;11.00;58.48;100704.77;110507;1264;23071;-78
2023/05/29 01:15:23;;;;;;;24.50;16.30;;;;;;;10.94;58.35;100702.34;110138;1264;21966;-80
2023/05/29 01:19:00;;;;;;;;;;;;;;;;;;;;;
2023/05/29 01:22:43;;;;;;;25.50;16.10;;;;;;;10.81;58.71;100705.39;110338;1264;21977;-80
2023/05/29 01:26:40;;;;;;;27.80;16.00;;;;;;;10.70;58.90;100706.60;110359;1261;21961;-79
2023/05/29 01:30:33;;;;;;;;;;;;;;;;;;;;;
2023/05/29 01:34:16;;;;;;;31.10;17.70;;;;;;;10.55;59.24;100704.15;109453;1271;21980;-79
2023/05/29 01:37:09;;;;;;;25.00;16.80;;;;;;;10.53;59.01;100701.75;108834;1277;24367;-78
2023/05/29 01:40:11;;;;;;;31.80;19.40;;;;;;;10.49;59.13;100707.80;108712;1281;22728;-80
2023/05/29 01:43:05;;;;;;;27.00;19.10;;;;;;;10.47;59.21;100709.27;108955;1276;22152;-78
2023/05/29 01:45:58;;;;;;;28.10;18.60;;;;;;;10.46;59.49;100705.11;108924;1272;22102;-79
2023/05/29 01:49:17;;;;;;;26.10;17.10;;;;;;;10.42;59.47;100704.70;108944;1274;23718;-81
2023/05/29 01:52:35;;;;;;;28.00;18.10;;;;;;;10.38;59.35;100701.54;108562;1282;23715;-79
2023/05/29 01:56:12;;;;;;;29.00;18.90;;;;;;;10.31;59.49;100698.11;108761;1278;22768;-80
2023/05/29 01:59:39;;;;;;;30.30;17.40;;;;;;;10.26;59.86;100699.64;109140;1273;22076;-77
2023/05/29 02:03:04;;;;;;;;;;;;;;;;;;;;;
2023/05/29 02:06:00;;;;;;;25.90;17.00;;;;;;;10.22;59.98;100694.70;109882;1264;22719;-81
2023/05/29 02:08:49;;;;;;;29.20;16.60;;;;;;;10.18;60.18;100686.64;109574;1266;21971;-80
2023/05/29 02:11:45;;;;;;;25.70;19.80;;;;;;;10.17;60.01;100688.92;110038;1265;21974;-79
2023/05/29 02:14:18;;;;;;;34.10;22.90;;;;;;;10.13;60.00;100693.77;109471;1272;21977;-79
2023/05/29 02:17:27;;;;;;;30.90;22.00;;;;;;;10.08;60.22;100695.14;108904;1279;23778;-79
2023/05/29 02:20:45;;;;;;;27.80;22.10;;;;;;;10.05;60.43;100694.86;108918;1278;21992;-79
2023/05/29 02:23:48;;;;;;;27.40;19.50;;;;;;;10.02;60.34;100693.75;108846;1278;21988;-79
2023/05/29 02:27:00;;;;;;;;;;;;;;;;;;;;;
2023/05/29 02:30:09;;;;;;;28.30;19.80;;;;;;;9.96;60.82;100695.13;109200;1272;22048;-80
2023/05/29 02:32:56;;;;;;;29.30;19.50;;;;;;;9.93;60.77;100695.95;109740;1268;22906;-79
2023/05/29 02:36:10;;;;;;;26.60;20.10;;;;;;;9.91;60.87;100701.89;110276;1260;22972;-79
2023/05/29 02:39:33;;;;;;;28.70;20.90;;;;;;;9.88;61.02;100706.67;110780;1259;21960;-79
2023/05/29 02:42:33;;;;;;;;;;;;;;;;;;;;;
2023/05/29 02:46:04;;;;;;;38.70;25.50;;;;;;;9.83;61.30;100702.83;110850;1258;21969;-79
2023/05/29 02:49:18;;;;;;;39.20;23.90;;;;;;;9.82;61.33;100699.90;110921;1259;23580;-80
2023/05/29 02:52:29;;;;;;;33.70;23.90;;;;;;;9.82;61.53;100703.54;110468;1261;21967;-78
2023/05/29 02:55:35;;;;;;;30.50;22.50;;;;;;;9.80;61.46;100704.47;110645;1261;22796;-78
2023/05/29 02:58:45;;;;;;;37.60;23.80;;;;;;;9.80;61.52;100703.44;110391;1261;23716;-78
2023/05/29 03:01:48;;;;;;;31.20;22.90;;;;;;;9.81;61.51;100703.05;110117;1264;21960;-78
2023/05/29 03:04:53;;;;;;;;;;;;;;;;;;;;;
2023/05/29 03:08:15;;;;;;;32.50;23.30;;;;;;;9.78;61.80;100698.27;110283;1262;23027;-79
2023/05/29 03:11:30;;;;;;;31.50;22.40;;;;;;;9.77;61.95;100699.86;110577;1258;23641;-79
2023/05/29 03:14:48;;;;;;;34.30;23.80;;;;;;;9.79;61.93;100696.50;110670;1258;23043;-78
2023/05/29 03:18:21;;;;;;;40.60;24.20;;;;;;;9.81;62.15;100701.84;110376;1264;21976;-81
2023/05/29 03:22:19;;;;;;;34.60;23.70;;;;;;;9.84;62.24;100702.27;110149;1267;21983;-79
2023/05/29 03:26:10;;;;;;;;;;;;;;;;;;;;;
2023/05/29 03:29:27;;;;;;;30.10;21.10;;;;;;;9.95;62.16;100708.55;108865;1271;21980;-81
2023/05/29 03:32:40;;;;;;;;;;;;;;;10.03;62.32;100712.85;108900;1277;23133;-79
2023/05/29 03:36:04;;;;;;;40.80;23.10;;;;;;;10.04;62.41;100716.81;108710;1276;24299;-79
2023/05/29 03:39:13;;;;;;;35.10;26.20;;;;;;;10.13;62.60;100722.09;109004;1273;22170;-80
2023/05/29 03:42:12;;;;;;;25.30;18.60;;;;;;;10.24;62.35;100724.55;109331;1273;22003;-81
2023/05/29 03:45:48;;;;;;;;;;;;;;;;;;;;;
2023/05/29 03:49:41;;;;;;;21.20;14.00;;;;;;;10.44;62.44;100729.71;109511;1271;24365;-80
2023/05/29 03:53:32;;;;;;;;;;;;;;;;;;;;;
2023/05/29 03:56:36;;;;;;;20.90;11.80;;;;;;;10.70;62.39;100731.88;109919;1265;23039;-77
2023/05/29 03:59:38;;;;;;;16.60;11.60;;;;;;;10.85;62.27;100735.38;110169;1265;21987;-80
2023/05/29 04:03:07;;;;;;;18.60;11.30;;;;;;;10.95;62.13;100736.26;110039;1268;23607;-78
2023/05/29 04:06:29;;;;;;;;;;;;;;;;;;;;;
2023/05/29 04:10:16;;;;;;;20.30;13.70;;;;;;;11.26;62.14;100731.70;109465;1269;22988;-81
2023/05/29 04:13:36;;;;;;;20.90;13.20;;;;;;;11.47;62.06;100727.15;109783;1269;21975;-78
2023/05/29 04:16:51;;;;;;;21.00;11.90;;;;;;;11.67;61.80;100729.58;109028;1277;22089;-79
2023/05/29 04:19:57;;;;;;;21.90;11.80;;;;;;;11.87;61.60;100728.52;109009;1276;22054;-79
2023/05/29 04:23:06;;;;;;;16.80;12.70;;;;;;;12.08;61.24;100723.39;109212;1275;22012;-78
2023/05/29 04:26:27;;;;;;;30.00;13.20;;;;;;;12.34;60.91;100721.55;108976;1277;23754;-76
2023/05/29 04:29:21;;;;;;;24.80;16.50;;;;;;;12.59;60.40;100720.35;109076;1274;22063;-77
2023/05/29 04:32:52;;;;;;;26.00;17.10;;;;;;;12.83;59.66;100720.77;108778;1280;22081;-81
2023/05/29 04:36:33;;;;;;;28.30;18.20;;;;;;;13.15;59.41;100721.88;108530;1281;22007;-79
2023/05/29 04:39:42;;;;;;;30.40;20.20;;;;;;;13.63;58.89;100723.52;108234;1286;23427;-80
2023/05/29 04:46:54;;;;;;;;;;;;;;;;;;;;;
2023/05/29 04:50:18;;;;;;;;;;;;;;;;;;;;;
2023/05/29 04:53:48;;;;;;;;;;;;;;;;;;;;;
2023/05/29 04:57:23;;;;;;;26.30;15.50;;;;;;;15.77;53.41;100727.14;109690;1264;21972;-76
2023/05/29 05:00:31;;;;;;;;;;;;;;;16.17;52.65;100727.77;110212;1264;23577;-78
2023/05/29 05:04:42;;;;;;;38.40;30.40;;;;;;;16.64;52.16;100727.79;110320;1260;21974;-77
2023/05/29 05:08:15;;;;;;;;;;;;;;;;;;;;;
2023/05/29 05:11:47;;;;;;;41.70;18.20;;;;;;;17.73;50.28;100731.59;110706;1260;21970;-78
2023/05/29 05:15:09;;;;;;;21.30;15.60;;;;;;;18.34;49.63;100733.02;110229;1266;23146;-77
2023/05/29 05:18:35;;;;;;;20.90;14.50;;;;;;;19.04;48.38;100733.05;109261;1273;23042;-77
2023/05/29 05:21:53;;;;;;;21.40;16.00;;;;;;;19.69;46.46;100728.64;109210;1271;21983;-82
2023/05/29 05:28:52;;;;;;;26.00;13.10;;;;;;;20.58;44.12;100731.17;108541;1283;22999;-78
2023/05/29 05:31:51;;;;;;;29.30;14.30;;;;;;;20.96;42.60;100732.02;108314;1283;22005;-78
2023/05/29 05:35:14;;;;;;;23.00;13.30;;;;;;;21.18;41.74;100731.41;108443;1280;22481;-79
2023/05/29 05:38:37;;;;;;;22.70;13.40;;;;;;;21.44;40.90;100730.86;108426;1285;23624;-77
2023/05/29 05:41:43;;;;;;;;;;;;;;;;;;;;;
2023/05/29 05:45:14;;;;;;;30.70;14.40;;;;;;;22.06;39.64;100731.13;108190;1286;21997;-77
2023/05/29 05:48:27;;;;;;;;;;;;;;;;;;;;;
2023/05/29 05:51:41;;;;;;;;;;;;;;;;;;;;;
2023/05/29 05:54:40;;;;;;;25.00;14.60;;;;;;;22.35;39.17;100731.68;108203;1287;23066;-81
2023/05/29 06:12:20;;;;;;;;;;;;;;;;;;;;;
2023/05/29 06:15:20;;;;;;;22.80;13.40;;;;;;;24.67;34.43;100744.31;107931;1261;2776186;-85
2023/05/29 06:18:23;;;;;;;19.30;13.70;;;;;;;24.46;35.16;100741.41;111160;1255;21957;-82
2023/05/29 06:21:07;;;;;;;19.10;11.40;;;;;;;24.44;35.26;100738.92;111143;1255;21967;-85
2023/05/29 06:23:41;;;;;;;25.10;11.40;;;;;;;24.53;35.67;100736.23;111276;1255;21968;-83
2023/05/29 06:26:16;;;;;;;13.80;11.20;;;;;;;24.73;35.81;100744.70;111326;1255;21965;-82
2023/05/29 06:28:47;;;;;;;21.90;11.10;;;;;;;24.99;35.83;100746.58;111148;1255;21960;-83
2023/05/29 06:31:19;;;;;;;17.80;12.30;;;;;;;25.20;34.97;100746.61;111371;1255;21960;-81
2023/05/29 06:33:56;;;;;;;16.80;11.60;;;;;;;25.34;34.75;100749.27;111123;1248;21916;-86
2023/05/29 06:36:36;;;;;;;24.40;11.10;;;;;;;25.53;34.57;100750.47;111082;1255;21970;-86
2023/05/29 06:39:19;;;;;;;18.70;9.00;;;;;;;25.73;33.96;100751.41;111284;1255;21997;-86
2023/05/29 06:41:57;;;;;;;14.70;8.50;;;;;;;25.86;33.89;100748.73;111439;1255;21960;-86
2023/05/29 06:44:35;;;;;;;10.90;6.00;;;;;;;26.04;33.43;100746.35;111447;1255;21955;-89
2023/05/29 06:47:17;;;;;;;9.10;5.50;;;;;;;26.27;32.50;100750.52;111641;1255;22221;-84
2023/05/29 06:49:56;;;;;;;13.30;5.30;;;;;;;26.54;31.85;100749.27;111202;1255;21971;-85
2023/05/29 06:52:43;;;;;;;10.30;6.60;;;;;;;26.71;31.11;100744.93;111692;1255;23621;-87
2023/05/29 06:55:27;;;;;;;8.00;5.00;;;;;;;26.80;30.73;100749.57;111309;1255;23740;-81
2023/05/29 06:58:03;;;;;;;8.50;3.90;;;;;;;26.97;30.46;100746.83;111414;1255;23610;-88
2023/05/29 07:00:40;;;;;;;10.10;3.90;;;;;;;27.15;29.56;100747.67;111157;1255;21996;-85
2023/05/29 07:03:44;;;;;;;10.60;3.20;;;;;;;27.20;28.75;100747.00;111485;1255;22023;-85
2023/05/29 07:06:27;;;;;;;10.20;3.30;;;;;;;27.24;28.38;100748.52;110835;1255;21950;-85
2023/05/29 07:09:16;;;;;;;12.30;4.00;;;;;;;27.26;28.16;100748.88;110845;1255;21941;-85
2023/05/29 07:11:58;;;;;;;6.10;3.00;;;;;;;27.34;27.43;100748.77;110871;1260;22235;-86
2023/05/29 07:14:35;;;;;;;7.10;3.00;;;;;;;27.45;27.39;100751.30;111024;1260;21979;-85
2023/05/29 07:17:10;;;;;;;8.70;2.30;;;;;;;27.61;27.09;100752.44;110704;1260;23603;-86
2023/05/29 07:19:56;;;;;;;15.50;3.90;;;;;;;27.76;26.52;100756.59;110672;1260;22831;-86
2023/05/29 07:22:44;;;;;;;8.30;2.80;;;;;;;27.91;25.99;100756.16;110677;1260;21958;-83
2023/05/29 07:25:22;;;;;;;6.10;2.20;;;;;;;27.88;25.31;100756.81;110885;1260;22094;-84
2023/05/29 07:28:08;;;;;;;6.70;2.50;;;;;;;27.78;25.21;100759.64;110883;1260;21993;-84
2023/05/29 07:31:02;;;;;;;5.30;2.20;;;;;;;27.78;24.88;100758.05;111277;1255;21979;-87
2023/05/29 07:33:35;;;;;;;8.10;1.90;;;;;;;27.79;24.80;100759.71;111175;1255;22994;-84
2023/05/29 07:36:09;;;;;;;7.80;2.40;;;;;;;27.88;24.47;100763.83;110631;1262;21961;-87
2023/05/29 07:38:46;;;;;;;9.00;2.50;;;;;;;28.00;24.30;100760.80;110606;1262;21972;-86
2023/05/29 07:41:23;;;;;;;4.70;1.90;;;;;;;28.14;23.80;100762.02;110643;1262;23981;-86
2023/05/29 07:44:02;;;;;;;;;;;;;;;28.09;22.92;100763.95;110584;1262;21944;-85
2023/05/29 07:46:48;;;;;;;5.20;2.00;;;;;;;27.83;22.90;100762.02;110795;1262;21976;-87
2023/05/29 07:49:58;;;;;;;8.90;2.30;;;;;;;27.88;23.60;100763.16;110428;1262;21969;-84
2023/05/29 07:52:34;;;;;;;9.20;2.70;;;;;;;28.14;23.96;100764.52;109898;1268;22056;-82
2023/05/29 07:55:05;;;;;;;7.30;2.20;;;;;;;28.33;23.26;100766.23;109737;1269;22989;-84
2023/05/29 07:57:46;;;;;;;4.20;1.60;;;;;;;28.35;22.15;100770.43;109742;1269;23718;-83
2023/05/29 08:00:24;;;;;;;4.70;1.90;;;;;;;28.28;22.17;100771.21;109430;1274;21952;-86
2023/05/29 08:03:02;;;;;;;7.90;2.30;;;;;;;28.24;22.25;100770.20;109224;1274;22444;-84
2023/05/29 08:06:15;;;;;;;9.00;1.90;;;;;;;28.29;22.80;100774.04;109369;1274;23628;-83
2023/05/29 08:08:49;;;;;;;5.40;1.80;;;;;;;28.46;22.66;100773.64;109206;1274;21964;-84
2023/05/29 08:11:27;;;;;;;8.10;2.00;;;;;;;28.60;22.33;100777.32;109567;1269;22214;-85
2023/05/29 08:14:03;;;;;;;6.50;2.20;;;;;;;28.68;22.15;100772.46;109491;1268;23691;-84
2023/05/29 08:16:35;;;;;;;8.50;2.70;;;;;;;28.83;22.25;100772.56;110003;1268;22014;-84
2023/05/29 08:19:19;;;;;;;6.20;2.00;;;;;;;28.97;21.58;100775.72;110253;1262;21963;-86
2023/05/29 08:21:56;;;;;;;3.00;1.70;;;;;;;28.83;21.23;100777.03;110480;1262;21960;-84
2023/05/29 08:24:30;;;;;;;3.90;1.70;;;;;;;28.61;21.12;100776.49;110624;1262;22065;-86
2023/05/29 08:27:25;;;;;;;8.30;2.10;;;;;;;28.59;21.52;100774.98;110713;1262;24460;-84
2023/05/29 08:30:12;;;;;;;6.10;2.10;;;;;;;28.73;21.43;100771.48;110647;1262;23611;-82
2023/05/29 08:32:47;;;;;;;5.80;2.20;;;;;;;28.86;21.46;100776.70;110968;1257;22138;-83
2023/05/29 08:35:18;;;;;;;;;;;;;;;28.98;21.55;100778.23;111225;1256;23634;-82
2023/05/29 08:37:49;;;;;;;8.30;1.60;;;;;;;28.85;21.02;100773.03;111064;1256;22767;-82
2023/05/29 08:40:47;;;;;;;7.00;2.00;;;;;;;28.82;21.53;100771.52;111008;1256;23580;-84
2023/05/29 08:43:37;;;;;;;6.60;2.60;;;;;;;28.63;21.03;100770.02;109779;1271;21917;-84
2023/05/29 08:46:18;;;;;;;8.10;2.20;;;;;;;28.44;21.36;100769.66;109770;1270;21955;-83
2023/05/29 08:49:45;;;;;;;4.80;1.70;;;;;;;28.47;21.79;100770.63;109955;1271;21979;-87
2023/05/29 08:52:20;;;;;;;7.40;2.30;;;;;;;28.65;21.56;100774.48;109357;1276;21985;-83
2023/05/29 08:55:00;;;;;;;6.00;1.70;;;;;;;28.72;21.27;100771.59;109204;1274;22044;-83
2023/05/29 08:57:40;;;;;;;3.80;2.00;;;;;;;28.81;21.33;100772.55;109206;1276;22247;-83
2023/05/29 09:00:28;;;;;;;3.40;1.60;;;;;;;28.84;20.97;100772.46;109384;1275;23081;-83
2023/05/29 09:03:05;;;;;;;5.40;1.60;;;;;;;28.78;21.00;100766.41;109746;1271;21985;-83
2023/05/29 09:05:45;;;;;;;7.20;2.40;;;;;;;28.81;21.18;100766.65;109815;1271;22017;-85
2023/05/29 09:08:26;;;;;;;4.90;1.80;;;;;;;28.84;21.09;100770.27;109594;1271;21992;-85
2023/05/29 09:11:05;;;;;;;8.40;1.70;;;;;;;28.87;21.12;100770.84;109710;1269;22039;-88
2023/05/29 09:13:47;;;;;;;6.40;1.80;;;;;;;28.88;20.99;100769.10;109245;1275;22001;-79
2023/05/29 09:16:20;;;;;;;6.40;2.20;;;;;;;28.79;20.82;100769.23;109324;1273;21995;-82
2023/05/29 09:19:28;;;;;;;4.30;2.40;;;;;;;28.76;21.28;100769.16;109223;1275;22061;-83
2023/05/29 09:22:27;;;;;;;13.00;2.30;;;;;;;28.80;21.75;100769.59;109245;1275;22056;-85
2023/05/29 09:25:07;;;;;;;7.50;2.20;;;;;;;28.86;21.92;100770.45;109209;1274;21984;-81
2023/05/29 09:28:00;;;;;;;6.80;2.30;;;;;;;29.01;21.83;100772.65;109174;1275;23062;-82
2023/05/29 09:30:47;;;;;;;12.30;2.70;;;;;;;29.13;21.42;100771.09;109855;1269;23038;-82
2023/05/29 09:33:21;;;;;;;3.20;1.80;;;;;;;29.22;20.99;100771.91;109498;1269;22006;-83
2023/05/29 09:36:03;;;;;;;5.60;2.40;;;;;;;29.09;20.58;100767.19;109926;1269;23126;-79
2023/05/29 09:38:54;;;;;;;8.40;2.30;;;;;;;28.83;20.64;100767.31;110330;1264;22985;-81
2023/05/29 09:41:45;;;;;;;4.60;2.50;;;;;;;28.70;20.47;100767.52;110567;1263;22016;-83
2023/05/29 09:44:19;;;;;;;6.90;2.10;;;;;;;28.54;20.34;100767.08;110694;1263;21950;-83
2023/05/29 09:47:04;;;;;;;9.10;2.70;;;;;;;28.41;20.59;100763.77;109897;1269;21950;-82
2023/05/29 09:49:43;;;;;;;8.00;2.50;;;;;;;28.35;20.69;100764.77;109916;1270;21979;-83
2023/05/29 09:52:23;;;;;;;7.50;2.90;;;;;;;28.27;21.03;100762.80;109935;1269;22012;-82
2023/05/29 09:55:02;;;;;;;8.70;2.80;;;;;;;28.23;20.86;100766.76;110001;1268;21990;-80
2023/05/29 09:57:53;;;;;;;5.80;2.20;;;;;;;28.14;20.88;100765.75;110039;1269;21959;-81
2023/05/29 10:00:27;;;;;;;6.00;2.50;;;;;;;28.07;20.72;100769.75;110567;1257;23685;-81
2023/05/29 10:03:07;;;;;;;8.10;2.70;;;;;;;27.97;20.74;100768.09;110672;1262;21992;-82
2023/05/29 10:05:52;;;;;;;7.30;2.70;;;;;;;27.86;20.89;100762.44;111015;1255;22030;-81
2023/05/29 10:08:55;;;;;;;6.60;2.40;;;;;;;27.88;21.61;100764.88;111355;1255;24420;-84
2023/05/29 10:11:32;;;;;;;15.60;3.70;;;;;;;28.07;21.55;100761.80;111544;1256;22093;-85
2023/05/29 10:14:07;;;;;;;6.80;2.30;;;;;;;28.15;21.14;100764.67;111473;1255;21932;-87
2023/05/29 10:16:45;;;;;;;6.50;2.20;;;;;;;28.00;20.87;100760.98;110818;1262;23585;-84
2023/05/29 10:19:37;;;;;;;6.60;2.20;;;;;;;27.88;21.09;100761.27;110672;1262;22807;-84
2023/05/29 10:22:10;;;;;;;9.00;3.10;;;;;;;27.73;21.03;100761.88;110154;1268;22730;-85
2023/05/29 10:24:51;;;;;;;4.80;2.80;;;;;;;27.47;21.19;100760.56;110102;1268;21980;-84
2023/05/29 10:27:24;;;;;;;35.00;4.00;;;;;;;27.41;21.58;100757.19;110075;1268;21969;-86
2023/05/29 10:30:42;;;;;;;9.70;2.70;;;;;;;27.26;21.61;100755.50;109876;1268;21977;-85
2023/05/29 10:34:45;;;;;;;6.50;2.50;;;;;;;27.12;21.87;100751.06;109971;1271;22086;-84
2023/05/29 10:37:39;;;;;;;6.70;2.10;;;;;;;27.02;22.00;100749.70;110629;1267;21968;-86
2023/05/29 10:40:35;;;;;;;7.80;3.30;;;;;;;27.06;22.31;100747.50;110721;1261;22032;-85
2023/05/29 10:43:33;;;;;;;6.40;3.20;;;;;;;27.05;22.10;100743.48;110842;1261;23587;-87
2023/05/29 10:46:50;;;;;;;6.50;2.30;;;;;;;26.95;21.91;100738.10;111497;1261;21938;-87
2023/05/29 10:49:38;;;;;;;5.10;2.40;;;;;;;26.84;22.23;100734.58;111119;1261;21999;-85
2023/05/29 10:52:13;;;;;;;8.70;2.70;;;;;;;26.72;22.36;100740.42;110865;1261;21991;-84
2023/05/29 10:54:52;;;;;;;8.70;2.40;;;;;;;26.57;22.62;100741.71;109979;1267;21988;-82
2023/05/29 10:57:35;;;;;;;7.20;2.80;;;;;;;26.44;23.08;100735.51;109804;1267;23631;-82
2023/05/29 11:00:14;;;;;;;8.50;3.00;;;;;;;26.31;22.72;100735.14;109828;1268;21979;-84
2023/05/29 11:03:11;;;;;;;5.80;2.40;;;;;;;26.15;22.66;100733.38;110190;1268;21980;-80
2023/05/29 11:06:19;;;;;;;8.10;3.70;;;;;;;26.10;22.86;100735.25;110470;1264;21982;-85
2023/05/29 11:08:57;;;;;;;5.90;2.60;;;;;;;26.02;22.70;100733.74;110673;1262;21978;-82
2023/05/29 11:11:42;;;;;;;9.90;3.90;;;;;;;25.92;22.76;100731.14;110660;1262;21986;-87
2023/05/29 11:14:57;;;;;;;;;;;;;;;;;;;;;
2023/05/29 11:19:02;;;;;;;7.00;2.20;;;;;;;25.69;23.45;100724.16;110670;1262;21953;-83
2023/05/29 11:22:51;;;;;;;6.20;2.50;;;;;;;25.55;23.48;100723.95;110016;1268;21971;-82
2023/05/29 11:26:48;;;;;;;3.90;2.10;;;;;;;25.40;23.13;100721.82;110132;1268;21990;-82
2023/05/29 11:29:56;;;;;;;6.70;2.10;;;;;;;25.31;23.48;100721.14;109874;1268;22919;-82
2023/05/29 11:33:37;;;;;;;7.40;3.30;;;;;;;25.43;23.97;100725.08;109807;1268;23653;-81
2023/05/29 11:37:35;;;;;;;;;;;;;;;;;;;;;
2023/05/29 11:41:06;;;;;;;7.00;2.20;;;;;;;25.57;23.84;100725.84;110171;1252;22452;-83
2023/05/29 11:44:57;;;;;;;;;;;;;;;;;;;;;
2023/05/29 11:49:04;;;;;;;5.40;2.50;;;;;;;25.58;23.55;100725.81;109389;1273;23634;-84
2023/05/29 11:52:41;;;;;;;5.20;2.40;;;;;;;25.49;23.57;100720.02;108301;1287;21998;-81
2023/05/29 11:59:19;;;;;;;5.80;2.30;;;;;;;25.29;23.82;100710.32;107877;1289;21998;-84
2023/05/29 12:02:25;;;;;;;;;;;;;;;;;;;;;
2023/05/29 12:05:54;;;;;;;4.60;1.80;;;;;;;25.14;24.22;100699.80;108221;1290;21999;-82
2023/05/29 12:08:47;;;;;;;4.60;2.60;;;;;;;25.09;24.24;100695.44;107693;1294;23101;-82
2023/05/29 12:11:48;;;;;;;6.20;2.20;;;;;;;25.17;24.34;100695.31;108045;1291;22133;-83
2023/05/29 12:14:54;;;;;;;5.60;2.40;;;;;;;25.20;24.31;100694.44;108254;1287;22006;-83
2023/05/29 12:18:06;;;;;;;;;;;;;;;;;;;;;
2023/05/29 12:20:49;;;;;;;7.70;2.50;;;;;;;25.32;24.35;100694.23;108279;1282;21990;-82
2023/05/29 12:23:50;;;;;;;2.80;1.90;;;;;;;25.33;24.55;100686.60;108590;1282;22494;-85
2023/05/29 12:26:42;;;;;;;;;;;;;;;;;;;;;
2023/05/29 12:29:34;;;;;;;5.80;2.20;;;;;;;25.41;24.38;100678.42;108857;1275;23856;-84
2023/05/29 12:33:28;;;;;;;;;;;;;;;;;;;;;
2023/05/29 12:37:13;;;;;;;;;;;;;;;;;;;;;
2023/05/29 12:40:26;;;;;;;6.50;2.90;;;;;;;25.58;24.79;100677.45;108680;1284;21997;-80
2023/05/29 12:43:33;;;;;;;4.90;2.20;;;;;;;25.62;24.71;100681.39;109197;1277;21985;-84
2023/05/29 12:47:35;;;;;;;10.20;2.50;;;;;;;25.74;24.75;100679.01;109351;1275;22971;-82
2023/05/29 12:50:40;;;;;;;6.00;2.40;;;;;;;25.68;24.36;100678.27;108608;1282;22823;-85
2023/05/29 12:53:39;;;;;;;9.50;3.20;;;;;;;25.65;24.26;100672.54;108547;1283;21994;-84
2023/05/29 12:57:03;;;;;;;7.20;2.20;;;;;;;25.57;24.13;100667.80;108660;1282;24406;-86
2023/05/29 13:00:35;;;;;;;7.40;2.50;;;;;;;25.49;24.37;100664.40;108263;1286;21991;-83
2023/05/29 13:03:25;;;;;;;5.20;2.60;;;;;;;25.56;24.60;100662.52;108066;1293;23638;-83
2023/05/29 13:09:42;;;;;;;12.20;2.80;;;;;;;25.75;24.15;100659.66;108158;1293;23180;-82
2023/05/29 13:13:11;;;;;;;9.50;2.70;;;;;;;25.81;24.28;100662.11;108312;1284;21993;-82
2023/05/29 13:16:00;;;;;;;8.90;2.80;;;;;;;25.80;24.22;100659.36;108415;1288;22023;-83
2023/05/29 13:18:54;;;;;;;;;;;;;;;;;;;;;
2023/05/29 13:21:48;;;;;;;7.70;2.20;;;;;;;25.68;24.20;100653.56;108161;1288;23062;-81
2023/05/29 13:24:55;;;;;;;6.10;2.40;;;;;;;25.45;24.54;100651.84;108406;1288;21999;-86
2023/05/29 13:28:12;;;;;;;9.60;2.50;;;;;;;25.31;24.74;100655.45;108526;1283;23827;-84
2023/05/29 13:31:24;;;;;;;7.40;2.90;;;;;;;25.14;25.07;100649.00;108716;1283;22077;-85
2023/05/29 13:35:07;;;;;;;7.40;2.60;;;;;;;24.97;25.32;100648.32;108393;1284;23232;-84
2023/05/29 13:38:46;;;;;;;;;;;;;;;;;;;;;
2023/05/29 13:52:37;;;;;;;;;;;;;;;;;;;;;
2023/05/29 13:56:07;;;;;;;7.40;3.70;;;;;;;24.50;26.83;100631.50;108648;1286;22020;-85
2023/05/29 13:58:50;;;;;;;54.00;5.10;;;;;;;24.55;26.56;100634.39;108927;1278;21766;-86
2023/05/29 14:02:30;;;;;;;169.60;18.10;;;;;;;24.50;26.46;100632.20;102521;1285;22006;-83
2023/05/29 14:05:31;;;;;;;14.30;4.10;;;;;;;24.49;26.88;100631.41;108711;1284;23618;-84
2023/05/29 14:08:41;;;;;;;9.20;3.10;;;;;;;24.52;26.69;100630.98;109012;1282;21995;-84
2023/05/29 14:11:25;;;;;;;24.80;4.60;;;;;;;24.50;26.74;100632.03;108971;1284;22696;-84
2023/05/29 14:14:26;;;;;;;7.60;3.20;;;;;;;24.47;26.99;100632.27;109062;1284;23602;-80
2023/05/29 14:20:24;;;;;;;8.50;4.00;;;;;;;24.45;27.33;100631.08;108784;1281;22056;-82
2023/05/29 14:23:40;;;;;;;6.00;2.90;;;;;;;24.39;27.58;100638.75;108890;1283;22009;-82
2023/05/29 14:26:41;;;;;;;7.60;3.20;;;;;;;24.35;27.62;100637.27;108628;1283;22033;-85
2023/05/29 14:29:43;;;;;;;10.10;3.90;;;;;;;24.32;27.68;100637.77;109468;1272;23743;-84
2023/05/29 14:32:59;;;;;;;;;;;;;;;;;;;;;
2023/05/29 14:35:43;;;;;;;13.50;6.30;;;;;;;24.36;27.85;100638.13;109813;1272;21970;-82
2023/05/29 14:38:54;;;;;;;;;;;;;;;;;;;;;
2023/05/29 14:42:02;;;;;;;;;;;;;;;;;;;;;
2023/05/29 14:45:14;;;;;;;8.00;4.20;;;;;;;24.61;27.72;100631.92;110619;1261;22011;-85
2023/05/29 14:48:22;;;;;;;5.50;3.60;;;;;;;24.55;27.85;100632.67;110863;1261;21997;-84
2023/05/29 14:51:12;;;;;;;11.40;4.90;;;;;;;24.56;27.94;100631.68;111170;1255;23628;-84
2023/05/29 14:54:15;;;;;;;10.80;6.10;;;;;;;24.52;27.82;100630.06;111103;1261;22965;-84
2023/05/29 14:58:16;;;;;;;;;;;;;;;;;;;;;
2023/05/29 15:01:30;;;;;;;11.80;4.90;;;;;;;24.23;27.93;100629.30;111008;1261;21949;-85
2023/05/29 15:04:19;;;;;;;11.00;6.20;;;;;;;24.20;28.18;100631.39;110945;1257;21973;-85
2023/05/29 15:07:36;;;;;;;14.80;7.00;;;;;;;24.14;28.30;100630.69;110508;1261;21962;-84
2023/05/29 15:11:09;;;;;;;8.00;4.30;;;;;;;24.04;28.51;100629.78;110744;1260;23746;-80
2023/05/29 15:14:50;;;;;;;;;;;;;;;;;;;;;
2023/05/29 15:18:09;;;;;;;;;;;;;;;;;;;;;
2023/05/29 15:21:42;;;;;;;7.00;4.40;;;;;;;23.73;29.89;100628.43;109767;1271;21980;-82
2023/05/29 15:25:27;;;;;;;7.20;4.60;;;;;;;23.61;30.04;100626.46;109569;1272;23627;-84
2023/05/29 15:28:37;;;;;;;7.40;5.30;;;;;;;23.59;30.57;100629.52;108899;1284;23635;-85
2023/05/29 15:45:48;;;;;;;10.70;4.00;;;;;;;24.73;29.18;100621.79;110309;1253;548864;-79
2023/05/29 15:49:20;;;;;;;7.80;4.60;;;;;;;24.72;28.93;100625.34;107189;1257;5414323;-79
2023/05/29 15:53:00;;;;;;;6.90;3.60;;;;;;;24.17;29.70;100629.55;110403;1266;21988;-83
2023/05/29 15:56:02;;;;;;;13.50;4.70;;;;;;;23.96;29.85;100628.25;109373;1274;23030;-81
2023/05/29 15:58:40;;;;;;;9.70;3.80;;;;;;;23.82;30.50;100628.02;109435;1274;21995;-86
2023/05/29 16:02:09;;;;;;;;;;;;;;;;;;;;;
2023/05/29 16:06:36;;;;;;;;;;;;;;;;;;;;;
2023/05/29 16:10:33;;;;;;;;;;;;;;;;;;;;;
2023/05/29 16:13:56;;;;;;;8.80;3.60;;;;;;;23.23;31.38;100630.89;108715;1285;23637;-85
2023/05/29 16:17:24;;;;;;;;;;;;;;;;;;;;;